Time;durP1;ratioP1;P1;durP2;ratioP2;P2;SDS_P1;SDS_P2;PMS_P1;PMS_P2;Temp;Humidity;BMP_temperature;BMP_pressure;BME280_temperature;BME280_humidity;BME280_pressure;Samples;Min_cycle;Max_cycle;Signal;HPM_P1;HPM_P2
2022/07/26 04:02:23;;;;;;;2.77;2.57;;;20.70;99.90;;;;;;5103714;23;21019;-64
2022/07/26 04:04:49;;;;;;;2.60;2.50;;;20.70;99.90;;;;;;4976540;28;20448;-63
2022/07/26 04:07:16;;;;;;;2.60;2.40;;;20.70;99.90;;;;;;4976602;28;20446;-65
2022/07/26 04:09:43;;;;;;;2.40;2.27;;;20.60;99.90;;;;;;4976840;28;20634;-64
2022/07/26 04:12:10;;;;;;;2.20;2.10;;;20.60;99.90;;;;;;4976305;28;20489;-64
2022/07/26 04:14:37;;;;;;;4.53;2.57;;;20.60;99.90;;;;;;4976218;28;20462;-64
2022/07/26 04:17:04;;;;;;;2.20;2.10;;;20.60;99.90;;;;;;4975879;28;20949;-64
2022/07/26 04:19:32;;;;;;;3.10;2.80;;;20.60;99.90;;;;;;4976770;28;20462;-64
2022/07/26 04:21:59;;;;;;;3.47;2.37;;;20.60;99.90;;;;;;4977220;28;20985;-64
2022/07/26 04:24:25;;;;;;;3.33;2.70;;;20.60;99.90;;;;;;4976914;28;20455;-65
2022/07/26 04:26:52;;;;;;;2.43;2.33;;;20.60;99.90;;;;;;4977587;28;20863;-64
2022/07/26 04:29:19;;;;;;;2.50;2.40;;;20.50;99.90;;;;;;4976828;28;20458;-64
2022/07/26 04:31:46;;;;;;;3.60;2.50;;;20.50;99.90;;;;;;4975883;28;20486;-64
2022/07/26 04:34:13;;;;;;;2.60;2.40;;;20.40;99.90;;;;;;4975997;28;20459;-65
2022/07/26 04:36:41;;;;;;;2.63;2.53;;;20.50;99.90;;;;;;4976127;28;20853;-64
2022/07/26 04:39:07;;;;;;;4.67;2.27;;;20.50;99.90;;;;;;4975705;28;20792;-65
2022/07/26 04:41:34;;;;;;;2.60;2.40;;;20.50;99.90;;;;;;4975784;28;20475;-64
2022/07/26 04:44:01;;;;;;;2.80;2.40;;;20.50;99.90;;;;;;4975909;28;20557;-64
2022/07/26 04:46:27;;;;;;;5.27;2.80;;;20.50;99.90;;;;;;4975749;28;20474;-65
2022/07/26 04:48:54;;;;;;;5.90;3.50;;;20.50;99.90;;;;;;4976155;28;20462;-63
2022/07/26 04:51:21;;;;;;;3.07;2.97;;;20.60;99.90;;;;;;4975547;28;20482;-63
2022/07/26 04:53:49;;;;;;;3.07;2.40;;;20.70;99.90;;;;;;4975313;28;20466;-63
2022/07/26 04:56:16;;;;;;;2.70;2.23;;;20.80;99.90;;;;;;4975593;28;20455;-64
2022/07/26 04:58:42;;;;;;;2.93;2.60;;;20.80;99.90;;;;;;4975882;28;20823;-64
2022/07/26 05:01:09;;;;;;;2.63;2.43;;;20.90;99.90;;;;;;4975686;28;20482;-64
2022/07/26 05:03:36;;;;;;;2.00;1.90;;;21.10;99.90;;;;;;4975651;28;20454;-64
2022/07/26 05:06:02;;;;;;;3.17;2.93;;;21.20;99.90;;;;;;4975738;28;20454;-65
2022/07/26 05:08:29;;;;;;;20.20;2.80;;;21.30;99.90;;;;;;4975740;28;20447;-64
2022/07/26 05:10:57;;;;;;;2.63;2.53;;;21.50;99.90;;;;;;4975498;28;20478;-64
2022/07/26 05:13:24;;;;;;;3.63;2.23;;;21.70;99.90;;;;;;4975801;28;20454;-65
2022/07/26 05:15:51;;;;;;;2.53;2.33;;;21.80;99.90;;;;;;4975350;28;20854;-66
2022/07/26 05:18:17;;;;;;;2.13;2.03;;;21.90;99.90;;;;;;4975428;28;20806;-66
2022/07/26 05:20:44;;;;;;;4.53;2.83;;;22.00;99.90;;;;;;4975248;28;20474;-65
2022/07/26 05:23:11;;;;;;;6.27;2.90;;;22.00;99.90;;;;;;4975656;28;20490;-65
2022/07/26 05:25:38;;;;;;;3.30;2.63;;;22.00;99.90;;;;;;4975306;28;20459;-66
2022/07/26 05:28:06;;;;;;;5.10;2.70;;;22.10;99.90;;;;;;4975157;28;20862;-66
2022/07/26 05:30:33;;;;;;;2.73;2.53;;;22.10;99.90;;;;;;4975054;28;20478;-65
2022/07/26 05:33:00;;;;;;;2.60;2.40;;;22.10;99.90;;;;;;4975248;28;20513;-65
2022/07/26 05:35:27;;;;;;;2.63;2.50;;;22.10;99.90;;;;;;4976469;28;20810;-65
2022/07/26 05:37:54;;;;;;;4.63;2.47;;;22.10;99.90;;;;;;4976347;28;20830;-67
2022/07/26 05:40:20;;;;;;;2.97;2.77;;;22.00;99.90;;;;;;4975974;28;20462;-65
2022/07/26 05:42:47;;;;;;;12.47;2.47;;;22.10;99.90;;;;;;4975441;28;20455;-65
2022/07/26 05:45:15;;;;;;;3.30;3.10;;;22.20;99.90;;;;;;4975039;28;20455;-65
2022/07/26 05:47:42;;;;;;;2.80;2.57;;;22.20;99.90;;;;;;4975292;28;20454;-65
2022/07/26 05:50:09;;;;;;;3.67;2.70;;;22.30;99.90;;;;;;4974924;28;20454;-65
2022/07/26 05:52:36;;;;;;;3.50;2.77;;;22.50;99.90;;;;;;4974684;28;20489;-65
2022/07/26 05:55:03;;;;;;;5.30;2.63;;;22.60;99.90;;;;;;4974958;28;20458;-65
2022/07/26 05:57:30;;;;;;;2.43;2.10;;;22.70;99.90;;;;;;4974795;28;20455;-65
2022/07/26 05:59:56;;;;;;;3.83;2.90;;;22.80;99.90;;;;;;4974866;28;20466;-65
2022/07/26 06:02:25;;;;;;;4.03;3.70;;;22.80;99.90;;;;;;4974687;28;20531;-65
2022/07/26 06:04:51;;;;;;;2.40;2.20;;;22.90;99.90;;;;;;4974848;28;20454;-66
2022/07/26 06:07:18;;;;;;;2.57;2.47;;;23.10;99.90;;;;;;4974572;28;21000;-66
2022/07/26 06:09:45;;;;;;;4.43;2.37;;;23.20;99.90;;;;;;4975166;28;20469;-66
2022/07/26 06:12:11;;;;;;;2.60;2.50;;;23.20;99.90;;;;;;4974531;28;20479;-65
2022/07/26 06:14:38;;;;;;;2.33;2.23;;;23.30;99.90;;;;;;4974805;28;20454;-65
2022/07/26 06:17:05;;;;;;;3.00;2.70;;;23.40;99.90;;;;;;4974809;28;20458;-65
2022/07/26 06:19:33;;;;;;;8.57;2.60;;;23.50;99.90;;;;;;4974683;28;20459;-65
2022/07/26 06:22:00;;;;;;;3.00;2.40;;;23.60;99.90;;;;;;4975538;28;20474;-65
2022/07/26 06:24:27;;;;;;;4.30;2.50;;;23.70;99.90;;;;;;4974755;28;20462;-65
2022/07/26 06:26:55;;;;;;;5.77;2.10;;;23.90;99.90;;;;;;4974686;28;20455;-65
2022/07/26 06:29:22;;;;;;;3.37;2.10;;;24.00;99.90;;;;;;4974582;28;20554;-65
2022/07/26 06:31:49;;;;;;;2.60;2.40;;;24.20;99.90;;;;;;4974344;28;20486;-66
2022/07/26 06:34:16;;;;;;;3.77;2.80;;;24.30;99.90;;;;;;4974398;28;20466;-65
2022/07/26 06:36:44;;;;;;;2.73;1.80;;;24.40;99.90;;;;;;4974638;28;20461;-65
2022/07/26 06:39:11;;;;;;;3.20;2.20;;;24.60;99.90;;;;;;4974637;28;20462;-65
2022/07/26 06:41:38;;;;;;;4.83;2.10;;;24.70;99.90;;;;;;4976554;28;20470;-65
2022/07/26 06:44:04;;;;;;;3.83;1.90;;;24.90;99.90;;;;;;4978021;28;20454;-65
2022/07/26 06:46:31;;;;;;;2.60;2.23;;;25.10;99.90;;;;;;4977993;28;20586;-65
2022/07/26 06:48:58;;;;;;;2.00;1.77;;;25.40;99.90;;;;;;4978082;28;20481;-65
2022/07/26 06:51:24;;;;;;;4.77;2.00;;;25.80;99.90;;;;;;4977684;28;20488;-65
2022/07/26 06:53:52;;;;;;;2.20;1.77;;;26.40;99.90;;;;;;4978227;28;20451;-65
2022/07/26 06:56:19;;;;;;;2.70;1.80;;;26.90;99.90;;;;;;4978378;28;20454;-65
2022/07/26 06:58:47;;;;;;;4.60;1.73;;;27.30;99.90;;;;;;4977702;28;20820;-65
2022/07/26 07:01:14;;;;;;;5.03;1.30;;;27.70;99.90;;;;;;4977253;28;20482;-65
2022/07/26 07:03:40;;;;;;;2.60;1.90;;;28.10;97.20;;;;;;4977656;28;20459;-66
2022/07/26 07:06:07;;;;;;;2.40;2.20;;;28.50;95.30;;;;;;4977636;28;20454;-65
2022/07/26 07:08:35;;;;;;;5.60;1.57;;;28.90;94.30;;;;;;4977690;28;20466;-65
2022/07/26 07:11:03;;;;;;;2.37;1.90;;;29.20;92.30;;;;;;4977440;28;20474;-66
2022/07/26 07:13:30;;;;;;;2.33;1.43;;;29.50;91.60;;;;;;4977530;28;20461;-66
2022/07/26 07:15:56;;;;;;;1.63;1.50;;;29.70;91.20;;;;;;4977227;28;21013;-66
2022/07/26 07:18:23;;;;;;;2.73;1.27;;;30.10;90.50;;;;;;4977592;28;20466;-66
2022/07/26 07:20:50;;;;;;;2.23;1.40;;;30.50;85.70;;;;;;4977124;28;20985;-66
2022/07/26 07:23:16;;;;;;;1.33;1.23;;;30.70;83.00;;;;;;4977478;28;20873;-66
2022/07/26 07:25:43;;;;;;;1.33;1.20;;;30.80;80.70;;;;;;4977323;28;20481;-66
2022/07/26 07:28:11;;;;;;;2.30;1.60;;;31.10;78.40;;;;;;4976912;28;20455;-67
2022/07/26 07:30:38;;;;;;;5.07;1.60;;;31.40;80.50;;;;;;4976748;28;20993;-63
2022/07/26 07:33:05;;;;;;;2.20;1.77;;;31.60;77.70;;;;;;4977167;28;20482;-66
2022/07/26 07:35:31;;;;;;;3.30;1.63;;;31.80;75.50;;;;;;4976890;28;20756;-66
2022/07/26 07:37:58;;;;;;;3.07;1.67;;;31.80;71.60;;;;;;4977051;28;20458;-66
2022/07/26 07:40:25;;;;;;;2.57;1.20;;;32.10;71.70;;;;;;4976832;28;20458;-64
2022/07/26 07:42:52;;;;;;;1.30;1.20;;;32.20;71.10;;;;;;4977115;28;20545;-64
2022/07/26 07:45:20;;;;;;;4.37;1.57;;;32.30;67.20;;;;;;4977000;28;20455;-65
2022/07/26 07:47:47;;;;;;;2.40;1.40;;;32.30;64.20;;;;;;4977077;28;20463;-65
2022/07/26 07:50:13;;;;;;;1.60;1.50;;;32.40;63.80;;;;;;4976728;28;20459;-65
2022/07/26 07:52:40;;;;;;;1.90;1.10;;;32.30;67.00;;;;;;4976069;28;20471;-65
2022/07/26 07:55:08;;;;;;;3.30;1.60;;;32.30;63.60;;;;;;4977258;28;20458;-65
2022/07/26 07:57:35;;;;;;;4.63;1.53;;;32.20;64.10;;;;;;4977254;28;20465;-65
2022/07/26 08:00:03;;;;;;;1.50;1.40;;;32.40;64.40;;;;;;4977112;28;20509;-65
2022/07/26 08:02:31;;;;;;;2.90;1.50;;;32.50;64.20;;;;;;4976896;28;20509;-66
2022/07/26 08:04:57;;;;;;;1.20;1.20;;;32.70;63.70;;;;;;4977129;28;20466;-65
2022/07/26 08:07:24;;;;;;;2.30;1.40;;;32.80;62.80;;;;;;4977035;28;20459;-65
2022/07/26 08:09:51;;;;;;;1.27;1.13;;;33.20;60.70;;;;;;4977156;28;20814;-64
2022/07/26 08:12:17;;;;;;;1.90;1.10;;;33.50;60.10;;;;;;4976529;28;20482;-65
2022/07/26 08:14:44;;;;;;;5.20;0.97;;;33.90;58.90;;;;;;4976968;28;20881;-65
2022/07/26 08:17:11;;;;;;;2.10;1.07;;;33.80;56.50;;;;;;4976892;28;20454;-65
2022/07/26 08:19:39;;;;;;;1.40;1.30;;;33.80;57.00;;;;;;4976480;28;20481;-66
2022/07/26 08:22:07;;;;;;;6.73;1.20;;;33.80;57.10;;;;;;4977893;28;20470;-67
2022/07/26 08:24:34;;;;;;;5.40;1.20;;;34.20;57.10;;;;;;4977985;28;20871;-65
2022/07/26 08:27:01;;;;;;;4.60;1.30;;;34.50;55.50;;;;;;4978181;28;20458;-66
2022/07/26 08:29:28;;;;;;;1.47;1.37;;;34.90;53.70;;;;;;4976867;28;20458;-66
2022/07/26 08:31:54;;;;;;;1.40;1.07;;;35.10;53.90;;;;;;4976567;28;20506;-65
2022/07/26 08:34:21;;;;;;;1.20;1.10;;;35.00;53.70;;;;;;4976331;28;20509;-66
2022/07/26 08:36:49;;;;;;;1.43;0.80;;;35.20;52.60;;;;;;4976242;28;20469;-65
2022/07/26 08:39:16;;;;;;;1.33;0.73;;;35.20;52.80;;;;;;4976053;28;20461;-65
2022/07/26 08:41:43;;;;;;;2.77;1.20;;;35.10;51.50;;;;;;4976591;28;20470;-65
2022/07/26 08:44:11;;;;;;;1.83;0.87;;;35.00;51.20;;;;;;4976144;28;20465;-64
2022/07/26 08:46:40;;;;;;;1.63;1.07;;;34.40;51.10;;;;;;4976139;28;20458;-66
2022/07/26 08:49:08;;;;;;;2.80;1.20;;;34.40;50.80;;;;;;4976701;28;20454;-65
2022/07/26 08:51:38;;;;;;;1.80;1.27;;;34.70;51.90;;;;;;4975887;28;21049;-64
2022/07/26 08:54:06;;;;;;;0.73;0.73;;;34.60;51.10;;;;;;4975982;28;20446;-64
2022/07/26 08:56:34;;;;;;;3.10;1.10;;;34.60;50.30;;;;;;4976024;28;20534;-65
2022/07/26 08:59:11;;;;;;;3.97;1.10;;;34.60;50.60;;;;;;4976039;28;20528;-66
2022/07/26 09:01:54;;;;;;;1.10;0.90;;;34.70;51.60;;;;;;4975996;28;20513;-65
2022/07/26 09:04:23;;;;;;;2.83;1.43;;;34.60;49.40;;;;;;4976258;28;20447;-65
2022/07/26 09:07:02;;;;;;;1.80;1.10;;;34.40;50.50;;;;;;4976045;28;20455;-65
2022/07/26 09:09:32;;;;;;;1.57;1.30;;;34.60;51.20;;;;;;4975799;28;20458;-65
2022/07/26 09:11:59;;;;;;;1.20;1.10;;;34.90;50.30;;;;;;4976163;28;20593;-64
2022/07/26 09:14:37;;;;;;;1.60;1.10;;;35.30;50.90;;;;;;4975744;28;20490;-65
2022/07/26 09:17:05;;;;;;;2.30;0.90;;;35.50;48.60;;;;;;4975254;28;20434;-66
2022/07/26 09:19:33;;;;;;;1.90;1.30;;;35.30;47.80;;;;;;4975643;28;20458;-65
2022/07/26 09:22:08;;;;;;;1.37;1.00;;;35.20;48.90;;;;;;4975327;28;20541;-65
2022/07/26 09:24:37;;;;;;;1.50;1.20;;;35.10;48.20;;;;;;4975512;28;20494;-65
2022/07/26 09:27:07;;;;;;;1.33;1.23;;;34.70;48.30;;;;;;4975657;28;20462;-64
2022/07/26 09:29:48;;;;;;;0.93;0.93;;;34.20;49.30;;;;;;4975083;28;20484;-64
2022/07/26 09:32:17;;;;;;;1.33;1.00;;;34.40;49.10;;;;;;4974607;28;20884;-64
2022/07/26 09:34:44;;;;;;;2.63;1.10;;;34.90;49.80;;;;;;4975081;28;20460;-64
2022/07/26 09:37:11;;;;;;;4.37;0.70;;;35.00;48.10;;;;;;4974968;28;20458;-64
2022/07/26 09:42:31;;;;;;;1.00;0.90;;;35.20;47.70;;;;;;5091996;27;20531;-65
2022/07/26 09:44:58;;;;;;;2.70;1.00;;;35.60;47.90;;;;;;5090117;28;20441;-65
2022/07/26 09:47:35;;;;;;;1.07;0.90;;;35.80;47.00;;;;;;5091293;28;20201;-65
2022/07/26 09:50:10;;;;;;;1.57;1.47;;;35.80;47.90;;;;;;5091240;28;20461;-64
2022/07/26 09:52:37;;;;;;;2.90;1.10;;;35.50;46.00;;;;;;5090915;28;20509;-64
2022/07/26 09:55:06;;;;;;;1.10;1.00;;;35.20;47.40;;;;;;5091009;28;20456;-64
2022/07/26 09:57:35;;;;;;;3.60;1.03;;;35.30;47.70;;;;;;5091315;28;20449;-64
2022/07/26 10:00:03;;;;;;;0.70;0.70;;;35.20;47.40;;;;;;5091802;28;20531;-64
2022/07/26 10:02:30;;;;;;;1.03;1.03;;;35.20;47.90;;;;;;5091209;28;20491;-64
2022/07/26 10:04:57;;;;;;;1.30;1.20;;;35.30;47.20;;;;;;5091454;28;20460;-64
2022/07/26 10:07:24;;;;;;;1.00;0.90;;;35.10;48.90;;;;;;5091380;28;20471;-64
2022/07/26 10:09:57;;;;;;;5.70;1.07;;;35.10;48.10;;;;;;5091189;28;20449;-64
2022/07/26 10:12:28;;;;;;;1.27;1.17;;;35.50;48.30;;;;;;5091137;28;20465;-65
2022/07/26 10:14:56;;;;;;;5.13;1.10;;;35.10;48.10;;;;;;5090433;28;20441;-66
2022/07/26 10:17:50;;;;;;;1.50;1.10;;;35.00;47.90;;;;;;5090578;28;20460;-66
2022/07/26 10:20:53;;;;;;;2.83;1.40;;;35.00;48.80;;;;;;5090505;28;20429;-66
2022/07/26 10:23:34;;;;;;;2.10;1.37;;;35.20;48.60;;;;;;5090775;28;20440;-67
2022/07/26 10:26:01;;;;;;;1.67;1.20;;;35.20;47.90;;;;;;5090634;28;20505;-67
2022/07/26 10:28:29;;;;;;;1.17;0.90;;;35.30;48.10;;;;;;5090691;28;20450;-67
2022/07/26 10:31:31;;;;;;;1.00;1.00;;;35.50;48.20;;;;;;5090568;28;20472;-65
2022/07/26 10:33:59;;;;;;;1.67;1.47;;;35.30;49.30;;;;;;5090495;28;20429;-64
2022/07/26 10:36:29;;;;;;;1.27;0.93;;;35.40;47.80;;;;;;5090491;28;20449;-65
2022/07/26 10:39:06;;;;;;;1.53;1.03;;;35.30;46.30;;;;;;5090338;28;20499;-65
2022/07/26 10:41:35;;;;;;;1.67;1.13;;;34.90;47.60;;;;;;5089916;28;20487;-65
2022/07/26 10:44:21;;;;;;;3.50;1.30;;;35.30;48.40;;;;;;5090372;28;20448;-65
2022/07/26 10:47:04;;;;;;;2.43;0.90;;;35.40;48.00;;;;;;5090267;28;20438;-66
2022/07/26 10:49:33;;;;;;;1.90;1.13;;;35.50;47.40;;;;;;5090193;28;20440;-67
2022/07/26 10:52:09;;;;;;;0.80;0.80;;;35.10;46.10;;;;;;5087049;28;20474;-67
2022/07/26 10:55:16;;;;;;;2.80;1.40;;;35.00;46.70;;;;;;5076737;28;20455;-66
2022/07/26 10:57:45;;;;;;;1.13;1.13;;;35.30;46.90;;;;;;5076565;28;20441;-66
2022/07/26 11:00:29;;;;;;;1.50;0.93;;;35.30;46.50;;;;;;5076651;28;20456;-66
2022/07/26 11:02:59;;;;;;;1.57;1.00;;;34.60;47.40;;;;;;5076555;28;20430;-66
2022/07/26 11:05:30;;;;;;;1.43;1.00;;;33.90;47.60;;;;;;5076592;28;20438;-66
2022/07/26 11:08:00;;;;;;;1.17;1.07;;;33.90;47.40;;;;;;5076441;28;20474;-67
2022/07/26 11:10:29;;;;;;;1.20;1.10;;;33.40;48.30;;;;;;5076337;28;20532;-66
2022/07/26 11:13:11;;;;;;;2.00;1.10;;;33.20;49.20;;;;;;5075874;28;21006;-67
2022/07/26 11:15:40;;;;;;;1.17;0.90;;;33.40;49.10;;;;;;5076207;28;20457;-67
2022/07/26 11:18:14;;;;;;;2.20;1.20;;;33.40;50.00;;;;;;5076067;28;20453;-67
2022/07/26 11:20:43;;;;;;;0.90;0.90;;;33.70;47.80;;;;;;5076264;28;20476;-67
2022/07/26 11:23:24;;;;;;;1.23;0.83;;;33.90;47.60;;;;;;5075799;28;20457;-66
2022/07/26 11:26:05;;;;;;;1.70;1.10;;;33.40;47.80;;;;;;5075857;28;20438;-66
2022/07/26 11:28:53;;;;;;;0.80;0.80;;;33.30;47.50;;;;;;5076117;28;20985;-66
2022/07/26 11:31:22;;;;;;;2.30;0.80;;;33.40;48.70;;;;;;5075775;28;20569;-66
2022/07/26 11:33:50;;;;;;;0.97;0.97;;;33.50;48.70;;;;;;5075903;28;20475;-66
2022/07/26 11:36:18;;;;;;;1.23;0.90;;;33.30;49.20;;;;;;5075214;28;20958;-66
2022/07/26 11:38:47;;;;;;;0.87;0.87;;;33.20;47.70;;;;;;5075406;28;20453;-66
2022/07/26 11:41:15;;;;;;;0.97;0.97;;;33.20;48.50;;;;;;5075316;28;20478;-66
2022/07/26 11:43:42;;;;;;;1.37;1.00;;;33.30;47.30;;;;;;5075686;28;20449;-65
2022/07/26 11:46:08;;;;;;;3.23;0.70;;;33.20;48.00;;;;;;5075257;28;20450;-66
2022/07/26 11:48:35;;;;;;;2.30;1.13;;;32.90;48.60;;;;;;5076414;28;20450;-67
2022/07/26 11:51:11;;;;;;;1.07;1.00;;;32.80;49.00;;;;;;5075276;28;20466;-67
2022/07/26 11:53:38;;;;;;;1.10;1.10;;;32.40;48.20;;;;;;5075720;28;20460;-67
2022/07/26 11:56:13;;;;;;;1.07;1.07;;;31.60;49.30;;;;;;5075706;28;20458;-68
2022/07/26 11:58:41;;;;;;;1.20;1.10;;;31.20;50.70;;;;;;5075583;28;20454;-68
2022/07/26 12:01:09;;;;;;;0.93;0.93;;;30.80;48.60;;;;;;5075496;28;20560;-67
2022/07/26 12:03:36;;;;;;;1.87;1.10;;;30.50;49.70;;;;;;5074750;28;20458;-68
2022/07/26 12:06:05;;;;;;;2.00;1.40;;;30.30;49.60;;;;;;5074958;28;20507;-67
2022/07/26 12:08:44;;;;;;;1.00;1.00;;;30.30;50.40;;;;;;5075203;28;20446;-65
2022/07/26 12:11:11;;;;;;;1.17;1.10;;;30.10;50.00;;;;;;5075509;28;20813;-66
2022/07/26 12:13:56;;;;;;;3.13;1.00;;;29.90;50.00;;;;;;5075193;28;20450;-66
2022/07/26 12:16:42;;;;;;;1.77;1.00;;;29.80;50.90;;;;;;5075250;28;20453;-66
2022/07/26 12:19:21;;;;;;;0.77;0.77;;;29.90;50.60;;;;;;5075710;28;20504;-67
2022/07/26 12:21:49;;;;;;;0.80;0.80;;;30.00;50.30;;;;;;5074880;28;20481;-66
2022/07/26 12:24:46;;;;;;;0.90;0.90;;;30.20;50.50;;;;;;5074575;28;20941;-66
2022/07/26 12:27:15;;;;;;;1.03;1.03;;;30.40;49.90;;;;;;5074938;28;20447;-67
2022/07/26 12:29:44;;;;;;;0.90;0.90;;;30.50;48.90;;;;;;5074926;28;20450;-67
2022/07/26 12:32:13;;;;;;;2.77;1.00;;;30.40;49.20;;;;;;5074691;28;20476;-68
2022/07/26 12:34:42;;;;;;;0.93;0.90;;;30.40;50.50;;;;;;5074492;28;20450;-68
2022/07/26 12:37:14;;;;;;;3.13;0.83;;;30.30;49.10;;;;;;5074673;28;20461;-69
2022/07/26 12:39:57;;;;;;;1.00;1.00;;;30.20;49.80;;;;;;5074932;28;20438;-68
2022/07/26 12:42:27;;;;;;;1.53;1.10;;;30.30;49.30;;;;;;5074431;28;20513;-68
2022/07/26 12:44:53;;;;;;;1.47;1.07;;;30.30;50.90;;;;;;5074356;28;20458;-68
2022/07/26 12:47:20;;;;;;;1.73;0.97;;;30.40;50.00;;;;;;5074593;28;20504;-68
2022/07/26 12:49:47;;;;;;;1.47;0.97;;;30.40;49.20;;;;;;5074582;28;20457;-68
2022/07/26 12:52:16;;;;;;;0.90;0.90;;;30.50;49.30;;;;;;5074169;28;20466;-68
2022/07/26 12:54:45;;;;;;;3.40;0.80;;;30.60;49.60;;;;;;5074906;28;20499;-68
2022/07/26 12:57:11;;;;;;;0.70;0.70;;;30.80;48.60;;;;;;5074780;28;20829;-67
2022/07/26 12:59:38;;;;;;;1.67;1.07;;;30.90;48.60;;;;;;5074224;28;20942;-67
2022/07/26 13:02:06;;;;;;;3.03;0.93;;;30.80;49.10;;;;;;5074669;28;20478;-67
2022/07/26 13:04:33;;;;;;;3.30;1.30;;;30.90;49.00;;;;;;5074269;28;20945;-67
2022/07/26 13:06:59;;;;;;;0.80;0.80;;;31.10;48.20;;;;;;5074454;28;20461;-67
2022/07/26 13:09:26;;;;;;;1.07;0.80;;;31.30;47.90;;;;;;5074275;28;20893;-68
2022/07/26 13:11:55;;;;;;;1.07;0.80;;;31.40;48.50;;;;;;5073868;28;20470;-68
2022/07/26 13:14:22;;;;;;;0.90;0.80;;;31.50;47.50;;;;;;5075199;28;20937;-67
2022/07/26 13:16:49;;;;;;;1.17;1.07;;;31.50;49.30;;;;;;5075223;28;20457;-68
2022/07/26 13:19:16;;;;;;;1.17;0.90;;;31.50;48.30;;;;;;5075662;28;20473;-67
2022/07/26 13:21:43;;;;;;;1.27;0.90;;;31.10;48.20;;;;;;5074313;28;20482;-67
2022/07/26 13:24:10;;;;;;;2.27;1.33;;;30.90;49.80;;;;;;5074299;28;20461;-67
2022/07/26 13:26:36;;;;;;;1.00;1.00;;;30.90;49.20;;;;;;5073672;28;20450;-67
2022/07/26 13:29:05;;;;;;;1.73;0.97;;;30.70;48.40;;;;;;5074332;28;20519;-67
2022/07/26 13:31:32;;;;;;;1.00;1.00;;;30.30;49.50;;;;;;5073834;28;20481;-67
2022/07/26 13:33:59;;;;;;;2.50;1.10;;;30.10;49.40;;;;;;5074321;28;20507;-66
2022/07/26 13:36:26;;;;;;;0.87;0.87;;;29.70;50.00;;;;;;5074231;28;20457;-67
2022/07/26 13:38:52;;;;;;;2.87;1.00;;;29.80;50.60;;;;;;5073933;28;20967;-67
2022/07/26 13:41:19;;;;;;;1.33;1.20;;;29.90;50.60;;;;;;5073813;28;20482;-67
2022/07/26 13:43:46;;;;;;;1.23;1.13;;;30.00;49.80;;;;;;5074141;28;20450;-67
2022/07/26 13:46:14;;;;;;;2.33;0.90;;;30.30;50.90;;;;;;5073678;28;20838;-68
2022/07/26 13:48:40;;;;;;;1.67;1.00;;;30.40;50.80;;;;;;5073975;28;20508;-67
2022/07/26 13:51:08;;;;;;;1.67;1.57;;;30.00;50.60;;;;;;5073683;28;20841;-67
2022/07/26 13:53:35;;;;;;;0.93;0.93;;;30.20;51.90;;;;;;5073193;28;20930;-67
2022/07/26 13:56:02;;;;;;;0.93;0.87;;;30.30;50.40;;;;;;5073417;28;20887;-67
2022/07/26 13:58:28;;;;;;;2.97;0.97;;;30.60;50.50;;;;;;5073494;28;20457;-67
2022/07/26 14:00:55;;;;;;;2.20;0.93;;;30.80;48.20;;;;;;5073396;28;20481;-67
2022/07/26 14:03:24;;;;;;;1.13;1.00;;;30.90;48.20;;;;;;5073313;28;20478;-67
2022/07/26 14:05:50;;;;;;;1.60;1.00;;;31.00;49.80;;;;;;5073070;28;20450;-68
2022/07/26 14:08:17;;;;;;;1.20;0.60;;;31.10;49.30;;;;;;5073354;28;20457;-66
2022/07/26 14:10:44;;;;;;;2.20;0.93;;;31.00;48.30;;;;;;5072791;28;21006;-66
2022/07/26 14:13:11;;;;;;;1.67;1.10;;;30.60;48.00;;;;;;5072985;28;20941;-66
2022/07/26 14:15:38;;;;;;;1.07;0.97;;;30.60;49.00;;;;;;5073268;28;20450;-66
2022/07/26 14:18:05;;;;;;;1.07;0.97;;;30.50;47.90;;;;;;5073202;28;20868;-66
2022/07/26 14:20:33;;;;;;;2.07;1.10;;;30.20;47.60;;;;;;5073138;28;20450;-66
2022/07/26 14:23:00;;;;;;;4.07;1.00;;;29.80;48.90;;;;;;5073315;28;20474;-67
2022/07/26 14:25:28;;;;;;;0.87;0.80;;;29.70;50.30;;;;;;5073102;28;20476;-66
2022/07/26 14:27:55;;;;;;;1.90;0.90;;;29.60;49.60;;;;;;5074700;28;20454;-65
2022/07/26 14:30:22;;;;;;;1.70;0.90;;;29.30;50.30;;;;;;5076776;28;20454;-65
2022/07/26 14:32:49;;;;;;;1.10;1.00;;;29.20;50.70;;;;;;5076518;28;20929;-64
2022/07/26 14:35:16;;;;;;;3.60;0.90;;;29.00;51.20;;;;;;5076874;28;20461;-64
2022/07/26 14:37:44;;;;;;;0.97;0.90;;;28.80;51.20;;;;;;5076771;28;20504;-65
2022/07/26 14:40:12;;;;;;;2.63;1.00;;;28.80;50.90;;;;;;5076514;28;20560;-64
2022/07/26 14:42:40;;;;;;;1.20;1.07;;;29.00;51.10;;;;;;5076893;28;20481;-65
2022/07/26 14:45:09;;;;;;;0.83;0.77;;;29.10;51.40;;;;;;5076906;28;20449;-65
2022/07/26 14:47:36;;;;;;;2.90;1.20;;;29.20;51.10;;;;;;5076735;28;20500;-65
2022/07/26 14:50:03;;;;;;;2.57;1.20;;;29.40;51.30;;;;;;5076703;28;20456;-65
2022/07/26 14:52:30;;;;;;;1.80;1.17;;;29.20;50.60;;;;;;5076628;28;20523;-65
2022/07/26 14:54:58;;;;;;;2.10;1.00;;;29.30;50.90;;;;;;5076483;28;20857;-65
2022/07/26 14:57:25;;;;;;;1.53;1.10;;;29.30;50.90;;;;;;5076502;28;20453;-65
2022/07/26 14:59:52;;;;;;;1.40;0.93;;;29.10;50.60;;;;;;5077230;28;20833;-65
2022/07/26 15:02:19;;;;;;;1.33;1.00;;;29.20;50.50;;;;;;5076244;28;20485;-66
2022/07/26 15:04:45;;;;;;;1.40;0.93;;;29.20;51.00;;;;;;5076528;28;20457;-67
2022/07/26 15:07:12;;;;;;;1.00;0.90;;;29.40;49.30;;;;;;5076409;28;20454;-65
2022/07/26 15:09:39;;;;;;;4.63;1.07;;;29.50;50.00;;;;;;5076351;28;20457;-65
2022/07/26 15:12:07;;;;;;;1.10;1.10;;;29.50;50.10;;;;;;5076190;28;20806;-65
2022/07/26 15:14:35;;;;;;;2.53;1.00;;;29.60;50.10;;;;;;5076121;28;20511;-65
2022/07/26 15:17:01;;;;;;;4.00;0.80;;;29.80;50.70;;;;;;5075868;28;20937;-65
2022/07/26 15:19:28;;;;;;;1.27;1.17;;;30.00;49.80;;;;;;5076236;28;20450;-65
2022/07/26 15:21:55;;;;;;;1.03;1.03;;;29.70;49.80;;;;;;5076114;28;20473;-65
2022/07/26 15:24:22;;;;;;;0.83;0.83;;;29.50;50.10;;;;;;5076446;28;20818;-65
2022/07/26 15:26:49;;;;;;;1.13;1.00;;;29.40;50.30;;;;;;5076123;28;20908;-65
2022/07/26 15:29:17;;;;;;;1.95;0.85;;;29.40;50.50;;;;;;5075694;28;20458;-65
2022/07/26 15:31:43;;;;;;;3.13;0.93;;;29.50;51.30;;;;;;5076693;28;20222;-65
2022/07/26 15:34:10;;;;;;;1.23;0.90;;;29.80;49.40;;;;;;5076282;28;20516;-65
2022/07/26 15:36:37;;;;;;;2.10;1.17;;;30.00;48.80;;;;;;5076247;28;20446;-65
2022/07/26 15:39:04;;;;;;;3.70;1.10;;;29.90;48.00;;;;;;5076331;28;20834;-66
2022/07/26 15:41:31;;;;;;;1.27;1.20;;;30.00;48.60;;;;;;5076350;28;20984;-66
2022/07/26 15:43:58;;;;;;;1.30;1.20;;;30.10;48.20;;;;;;5077032;28;20474;-65
2022/07/26 15:46:26;;;;;;;1.07;1.07;;;30.30;49.10;;;;;;5076685;28;20457;-65
2022/07/26 15:48:53;;;;;;;1.63;1.30;;;30.30;47.90;;;;;;5076408;28;20457;-65
2022/07/26 15:51:22;;;;;;;1.10;1.00;;;30.40;49.10;;;;;;5075662;28;20505;-65
2022/07/26 15:53:48;;;;;;;1.20;1.10;;;30.40;48.70;;;;;;5075664;28;20457;-65
2022/07/26 15:56:15;;;;;;;1.27;0.90;;;30.30;48.50;;;;;;5075721;28;20934;-65
2022/07/26 15:58:42;;;;;;;1.20;1.20;;;30.30;49.20;;;;;;5075544;28;20457;-65
2022/07/26 16:01:09;;;;;;;1.00;0.70;;;30.30;47.90;;;;;;5075318;28;20470;-66
2022/07/26 16:03:37;;;;;;;1.47;0.80;;;30.20;48.50;;;;;;5075313;28;20474;-65
2022/07/26 16:06:04;;;;;;;0.90;0.90;;;30.10;48.70;;;;;;5075123;28;20446;-66
2022/07/26 16:08:31;;;;;;;1.60;1.20;;;30.00;48.60;;;;;;5075147;28;20457;-65
2022/07/26 16:10:57;;;;;;;3.90;0.90;;;29.90;50.40;;;;;;5075136;28;20482;-64
2022/07/26 16:13:24;;;;;;;1.70;1.00;;;29.90;50.40;;;;;;5075370;28;20453;-64
2022/07/26 16:15:51;;;;;;;0.97;0.97;;;29.80;50.00;;;;;;5075340;28;20454;-64
2022/07/26 16:18:18;;;;;;;3.57;1.37;;;29.50;50.50;;;;;;5075145;28;20454;-65
2022/07/26 16:20:46;;;;;;;3.30;0.90;;;29.40;50.30;;;;;;5075247;28;20481;-65
2022/07/26 16:23:12;;;;;;;1.50;1.20;;;29.40;51.00;;;;;;5074955;28;20473;-63
2022/07/26 16:25:39;;;;;;;4.43;1.17;;;29.40;51.00;;;;;;5074649;28;20862;-64
2022/07/26 16:28:06;;;;;;;6.50;1.10;;;29.40;51.90;;;;;;5075146;28;20828;-64
2022/07/26 16:30:35;;;;;;;1.17;1.07;;;29.40;51.20;;;;;;5074980;28;20450;-65
2022/07/26 16:33:02;;;;;;;1.30;0.90;;;29.40;51.00;;;;;;5074658;28;20442;-64
2022/07/26 16:35:29;;;;;;;2.40;1.40;;;29.40;51.00;;;;;;5074712;28;20520;-64
2022/07/26 16:37:57;;;;;;;1.33;1.07;;;29.40;51.10;;;;;;5074606;28;20458;-64
2022/07/26 16:40:24;;;;;;;2.10;1.20;;;29.30;51.60;;;;;;5074313;28;20469;-65
2022/07/26 16:42:50;;;;;;;1.20;1.10;;;29.10;52.00;;;;;;5074368;28;20466;-64
2022/07/26 16:45:17;;;;;;;3.17;1.17;;;29.00;52.00;;;;;;5074379;28;20481;-64
2022/07/26 16:47:44;;;;;;;1.90;1.10;;;28.80;53.10;;;;;;5074353;28;20457;-64
2022/07/26 16:50:10;;;;;;;2.10;1.33;;;28.80;52.20;;;;;;5073669;28;20454;-65
2022/07/26 16:52:37;;;;;;;2.07;1.20;;;28.70;51.70;;;;;;5074469;28;20602;-65
2022/07/26 16:55:09;;;;;;;1.10;1.10;;;28.70;51.90;;;;;;5074511;28;20449;-65
2022/07/26 16:57:36;;;;;;;2.63;1.10;;;28.60;52.50;;;;;;5074211;28;20916;-66
2022/07/26 17:00:04;;;;;;;1.20;1.20;;;28.60;52.10;;;;;;5074153;28;20523;-66